Teaberry, KY (41660)

2:19 PM EDT on September 17, 2014 (GMT -0400)
Pikeville Medical Center | Change Station
CLOSE
Current Station
Personal Weather Station
Location: Pikeville, KY
Elevation: 683 ft
Nearby Weather Stations

Elev 683 ft 37.47 °N, 82.52 °W | Updated 1 minute ago

Mostly Cloudy
Mostly Cloudy
70.8 °F
Feels Like 75 °F
N
0.0
Wind Variable Wind from North
Gusts 1.0 mph

Today
High -- | Low -- °F
--% Chance of Precip.
Yesterday
High -- | Low -- °F
Precip. -- in
7:14 AM 7:35 PM
Waning Crescent, 34% visible
Pressure 30.02 in
Visibility 10.0 miles
Clouds Scattered Clouds 1900 ft
Mostly Cloudy 2600 ft
Heat Index 75 °F
Dew Point 58 °F
Humidity 65%
Rainfall -999.00 in
Snow Depth Not available.
UV 5 out of 12
Pollen 5.60 out of 12
Air Quality Not available.
Flu Activity Not available.
METAR KSJS 171735Z AUTO 06003KT 10SM SCT019 BKN026 18/14 A3002 RMK AO2 T01800136

More Conditions Fewer Conditions

Pressure 30.02 in
Visibility 10.0 miles
Clouds Scattered Clouds 1900 ft
Mostly Cloudy 2600 ft
Heat Index 75 °F
Dew Point 58 °F
Humidity 65%
Rainfall -999.00 in
Snow Depth Not available.
UV 5 out of 12
Pollen 5.60 out of 12
Air Quality Not available.
Flu Activity Not available.
METAR KSJS 171735Z AUTO 06003KT 10SM SCT019 BKN026 18/14 A3002 RMK AO2 T01800136

More Conditions Fewer Conditions

10-Day Weather Forecast

Almanac

Astronomy

Sep. 17, 2014 Rise Set
Actual Time 7:14 AM EDT 7:35 PM EDT
Civil Twilight 6:48 AM EDT 8:01 PM EDT
Nautical Twilight 6:17 AM EDT 8:31 PM EDT
Astronomical Twilight 5:46 AM EDT 9:03 PM EDT
Moon 1:18 AM EDT 3:39 PM EDT
Length of Visible Light 13h 13m
Length of Day
12h 21m
Tomorrow will be 2m 23s shorter.
Waning Crescent, 34% of the Moon is Illuminated
Today
Waning Crescent
Sep 24
New
Oct 1
First Quarter
Oct 8
Full
Oct 15
Last Quarter

Today's Extremes

State Highs State Lows

Community

WunderPhotos

Upload Photos

1,754,122 photos uploaded!

WunderBlogs® & News

Nearby

Snow Depth

Station Depth Elevation
No new snow has been reported.

Earthquake Activity

City Distance Mag. Time & Date
No recent earthquake activity has been reported nearby.
Minimum magnitude displayed is 2.5.

Coastal Water Temperatures

Place Temperature
No Stations Reporting

Nearby Weather Stations